sensor_id;sensor_type;location;lat;lon;timestamp;P1;durP1;ratioP1;P2;durP2;ratioP2
49378;SDS011;35254;47.990;-1.608;2022-11-11T00:00:35;12.63;;;3.22;;
49378;SDS011;35254;47.990;-1.608;2022-11-11T00:03:01;9.82;;;2.50;;
49378;SDS011;35254;47.990;-1.608;2022-11-11T00:05:28;8.80;;;3.10;;
49378;SDS011;35254;47.990;-1.608;2022-11-11T00:07:54;9.68;;;2.80;;
49378;SDS011;35254;47.990;-1.608;2022-11-11T00:10:26;4.55;;;2.72;;
49378;SDS011;35254;47.990;-1.608;2022-11-11T00:12:59;5.90;;;2.88;;
49378;SDS011;35254;47.990;-1.608;2022-11-11T00:15:27;9.38;;;2.50;;
49378;SDS011;35254;47.990;-1.608;2022-11-11T00:17:53;5.43;;;2.25;;
49378;SDS011;35254;47.990;-1.608;2022-11-11T00:20:38;9.75;;;2.22;;
49378;SDS011;35254;47.990;-1.608;2022-11-11T00:23:23;8.27;;;2.55;;
49378;SDS011;35254;47.990;-1.608;2022-11-11T00:26:08;3.33;;;2.00;;
49378;SDS011;35254;47.990;-1.608;2022-11-11T00:28:35;7.30;;;3.15;;
49378;SDS011;35254;47.990;-1.608;2022-11-11T00:31:01;3.75;;;2.05;;
49378;SDS011;35254;47.990;-1.608;2022-11-11T00:33:32;5.88;;;2.05;;
49378;SDS011;35254;47.990;-1.608;2022-11-11T00:35:58;10.38;;;2.67;;
49378;SDS011;35254;47.990;-1.608;2022-11-11T00:38:24;7.82;;;2.50;;
49378;SDS011;35254;47.990;-1.608;2022-11-11T00:41:09;4.53;;;2.28;;
49378;SDS011;35254;47.990;-1.608;2022-11-11T00:43:35;7.93;;;2.85;;
49378;SDS011;35254;47.990;-1.608;2022-11-11T00:46:01;5.25;;;2.45;;
49378;SDS011;35254;47.990;-1.608;2022-11-11T00:48:45;9.68;;;2.00;;
49378;SDS011;35254;47.990;-1.608;2022-11-11T00:51:29;6.22;;;2.13;;
49378;SDS011;35254;47.990;-1.608;2022-11-11T00:53:55;11.70;;;2.47;;
49378;SDS011;35254;47.990;-1.608;2022-11-11T00:56:21;9.10;;;2.50;;
49378;SDS011;35254;47.990;-1.608;2022-11-11T00:58:47;8.90;;;2.75;;
49378;SDS011;35254;47.990;-1.608;2022-11-11T01:01:13;4.80;;;2.85;;
49378;SDS011;35254;47.990;-1.608;2022-11-11T01:03:39;3.67;;;2.20;;
49378;SDS011;35254;47.990;-1.608;2022-11-11T01:06:05;7.00;;;2.22;;
49378;SDS011;35254;47.990;-1.608;2022-11-11T01:08:31;8.90;;;2.33;;
49378;SDS011;35254;47.990;-1.608;2022-11-11T01:10:57;7.88;;;2.00;;
49378;SDS011;35254;47.990;-1.608;2022-11-11T01:13:27;10.27;;;2.55;;
49378;SDS011;35254;47.990;-1.608;2022-11-11T01:16:02;11.57;;;2.30;;
49378;SDS011;35254;47.990;-1.608;2022-11-11T01:18:32;7.03;;;2.58;;
49378;SDS011;35254;47.990;-1.608;2022-11-11T01:20:59;4.45;;;2.22;;
49378;SDS011;35254;47.990;-1.608;2022-11-11T01:23:37;5.63;;;2.35;;
49378;SDS011;35254;47.990;-1.608;2022-11-11T01:26:12;8.05;;;2.88;;
49378;SDS011;35254;47.990;-1.608;2022-11-11T01:28:49;9.10;;;2.95;;
49378;SDS011;35254;47.990;-1.608;2022-11-11T01:31:21;6.88;;;2.67;;
49378;SDS011;35254;47.990;-1.608;2022-11-11T01:33:48;6.40;;;2.88;;
49378;SDS011;35254;47.990;-1.608;2022-11-11T01:36:18;8.93;;;3.13;;
49378;SDS011;35254;47.990;-1.608;2022-11-11T01:38:49;7.22;;;3.22;;
49378;SDS011;35254;47.990;-1.608;2022-11-11T01:41:18;10.30;;;3.05;;
49378;SDS011;35254;47.990;-1.608;2022-11-11T01:44:02;6.40;;;2.53;;
49378;SDS011;35254;47.990;-1.608;2022-11-11T01:50:09;10.63;;;3.35;;
49378;SDS011;35254;47.990;-1.608;2022-11-11T01:52:17;6.05;;;2.65;;
49378;SDS011;35254;47.990;-1.608;2022-11-11T01:57:28;8.40;;;3.25;;
49378;SDS011;35254;47.990;-1.608;2022-11-11T02:00:16;7.32;;;2.25;;
49378;SDS011;35254;47.990;-1.608;2022-11-11T02:02:45;6.63;;;2.60;;
49378;SDS011;35254;47.990;-1.608;2022-11-11T02:05:17;5.82;;;2.85;;
49378;SDS011;35254;47.990;-1.608;2022-11-11T02:08:08;7.88;;;2.30;;
49378;SDS011;35254;47.990;-1.608;2022-11-11T02:10:37;5.20;;;2.58;;
49378;SDS011;35254;47.990;-1.608;2022-11-11T02:13:11;7.13;;;2.53;;
49378;SDS011;35254;47.990;-1.608;2022-11-11T02:15:56;4.43;;;2.75;;
49378;SDS011;35254;47.990;-1.608;2022-11-11T02:18:22;5.72;;;2.60;;
49378;SDS011;35254;47.990;-1.608;2022-11-11T02:20:48;7.35;;;3.00;;
49378;SDS011;35254;47.990;-1.608;2022-11-11T02:23:15;6.75;;;2.58;;
49378;SDS011;35254;47.990;-1.608;2022-11-11T02:25:49;7.82;;;2.30;;
49378;SDS011;35254;47.990;-1.608;2022-11-11T02:28:17;2.53;;;2.33;;
49378;SDS011;35254;47.990;-1.608;2022-11-11T02:30:45;2.30;;;2.10;;
49378;SDS011;35254;47.990;-1.608;2022-11-11T02:33:10;5.25;;;2.33;;
49378;SDS011;35254;47.990;-1.608;2022-11-11T02:35:37;4.53;;;2.17;;
49378;SDS011;35254;47.990;-1.608;2022-11-11T02:38:06;11.02;;;2.70;;
49378;SDS011;35254;47.990;-1.608;2022-11-11T02:40:36;7.95;;;2.33;;
49378;SDS011;35254;47.990;-1.608;2022-11-11T02:43:25;3.60;;;2.58;;
49378;SDS011;35254;47.990;-1.608;2022-11-11T02:45:51;3.25;;;2.25;;
49378;SDS011;35254;47.990;-1.608;2022-11-11T02:48:17;3.85;;;2.35;;
49378;SDS011;35254;47.990;-1.608;2022-11-11T02:50:43;3.95;;;2.10;;
49378;SDS011;35254;47.990;-1.608;2022-11-11T02:53:09;4.22;;;2.20;;
49378;SDS011;35254;47.990;-1.608;2022-11-11T02:55:34;5.18;;;2.20;;
49378;SDS011;35254;47.990;-1.608;2022-11-11T02:58:00;6.53;;;2.33;;
49378;SDS011;35254;47.990;-1.608;2022-11-11T03:00:26;5.50;;;2.35;;
49378;SDS011;35254;47.990;-1.608;2022-11-11T03:02:52;2.40;;;2.20;;
49378;SDS011;35254;47.990;-1.608;2022-11-11T03:05:17;2.47;;;2.20;;
49378;SDS011;35254;47.990;-1.608;2022-11-11T03:07:43;8.35;;;3.08;;
49378;SDS011;35254;47.990;-1.608;2022-11-11T03:10:09;10.32;;;3.08;;
49378;SDS011;35254;47.990;-1.608;2022-11-11T03:12:35;6.85;;;3.30;;
49378;SDS011;35254;47.990;-1.608;2022-11-11T03:15:01;2.85;;;2.55;;
49378;SDS011;35254;47.990;-1.608;2022-11-11T03:17:27;3.00;;;2.30;;
49378;SDS011;35254;47.990;-1.608;2022-11-11T03:23:08;8.77;;;2.58;;
49378;SDS011;35254;47.990;-1.608;2022-11-11T03:25:37;8.70;;;2.58;;
49378;SDS011;35254;47.990;-1.608;2022-11-11T03:28:05;7.30;;;2.05;;
49378;SDS011;35254;47.990;-1.608;2022-11-11T03:30:34;3.42;;;2.08;;
49378;SDS011;35254;47.990;-1.608;2022-11-11T03:33:01;8.52;;;2.25;;
49378;SDS011;35254;47.990;-1.608;2022-11-11T03:35:28;5.15;;;2.22;;
49378;SDS011;35254;47.990;-1.608;2022-11-11T03:37:54;6.28;;;3.05;;
49378;SDS011;35254;47.990;-1.608;2022-11-11T03:40:39;5.90;;;2.10;;
49378;SDS011;35254;47.990;-1.608;2022-11-11T03:43:05;6.55;;;1.70;;
49378;SDS011;35254;47.990;-1.608;2022-11-11T03:45:31;2.60;;;1.95;;
49378;SDS011;35254;47.990;-1.608;2022-11-11T03:47:57;4.40;;;2.63;;
49378;SDS011;35254;47.990;-1.608;2022-11-11T03:50:23;2.28;;;1.70;;
49378;SDS011;35254;47.990;-1.608;2022-11-11T03:52:48;5.80;;;1.90;;
49378;SDS011;35254;47.990;-1.608;2022-11-11T03:55:14;7.82;;;2.10;;
49378;SDS011;35254;47.990;-1.608;2022-11-11T03:57:43;4.25;;;1.67;;
49378;SDS011;35254;47.990;-1.608;2022-11-11T04:00:10;4.30;;;1.65;;
49378;SDS011;35254;47.990;-1.608;2022-11-11T04:02:37;8.45;;;2.17;;
49378;SDS011;35254;47.990;-1.608;2022-11-11T04:05:21;6.28;;;2.05;;
49378;SDS011;35254;47.990;-1.608;2022-11-11T04:08:09;2.22;;;1.70;;
49378;SDS011;35254;47.990;-1.608;2022-11-11T04:10:59;5.15;;;1.60;;
49378;SDS011;35254;47.990;-1.608;2022-11-11T04:13:27;3.55;;;1.63;;
49378;SDS011;35254;47.990;-1.608;2022-11-11T04:16:27;6.13;;;1.80;;
49378;SDS011;35254;47.990;-1.608;2022-11-11T04:18:52;1.27;;;1.02;;
49378;SDS011;35254;47.990;-1.608;2022-11-11T04:21:37;7.28;;;1.60;;
49378;SDS011;35254;47.990;-1.608;2022-11-11T04:24:08;3.40;;;1.30;;
49378;SDS011;35254;47.990;-1.608;2022-11-11T04:26:53;2.15;;;1.40;;
49378;SDS011;35254;47.990;-1.608;2022-11-11T04:29:20;6.18;;;1.40;;
49378;SDS011;35254;47.990;-1.608;2022-11-11T04:31:52;3.42;;;1.23;;
49378;SDS011;35254;47.990;-1.608;2022-11-11T04:35:05;3.20;;;0.98;;
49378;SDS011;35254;47.990;-1.608;2022-11-11T04:37:34;8.55;;;1.30;;
49378;SDS011;35254;47.990;-1.608;2022-11-11T04:40:00;9.55;;;2.15;;
49378;SDS011;35254;47.990;-1.608;2022-11-11T04:42:45;6.45;;;1.25;;
49378;SDS011;35254;47.990;-1.608;2022-11-11T04:45:11;7.65;;;1.75;;
49378;SDS011;35254;47.990;-1.608;2022-11-11T04:50:21;4.45;;;1.15;;
49378;SDS011;35254;47.990;-1.608;2022-11-11T04:52:48;5.65;;;1.20;;
49378;SDS011;35254;47.990;-1.608;2022-11-11T04:55:13;3.75;;;1.35;;
49378;SDS011;35254;47.990;-1.608;2022-11-11T04:57:58;3.72;;;1.10;;
49378;SDS011;35254;47.990;-1.608;2022-11-11T05:00:24;2.20;;;1.30;;
49378;SDS011;35254;47.990;-1.608;2022-11-11T05:02:52;1.38;;;1.30;;
49378;SDS011;35254;47.990;-1.608;2022-11-11T05:05:37;2.50;;;1.20;;
49378;SDS011;35254;47.990;-1.608;2022-11-11T05:08:21;4.35;;;1.08;;
49378;SDS011;35254;47.990;-1.608;2022-11-11T05:11:05;1.52;;;1.30;;
49378;SDS011;35254;47.990;-1.608;2022-11-11T05:13:31;4.00;;;1.60;;
49378;SDS011;35254;47.990;-1.608;2022-11-11T05:16:15;5.70;;;1.52;;
49378;SDS011;35254;47.990;-1.608;2022-11-11T05:19:15;2.53;;;1.38;;
49378;SDS011;35254;47.990;-1.608;2022-11-11T05:24:55;4.05;;;1.50;;
49378;SDS011;35254;47.990;-1.608;2022-11-11T05:27:40;4.85;;;1.15;;
49378;SDS011;35254;47.990;-1.608;2022-11-11T05:30:07;3.35;;;1.45;;
49378;SDS011;35254;47.990;-1.608;2022-11-11T05:32:34;1.48;;;1.17;;
49378;SDS011;35254;47.990;-1.608;2022-11-11T05:34:59;5.93;;;1.25;;
49378;SDS011;35254;47.990;-1.608;2022-11-11T05:37:25;4.53;;;1.30;;
49378;SDS011;35254;47.990;-1.608;2022-11-11T05:39:51;5.40;;;1.48;;
49378;SDS011;35254;47.990;-1.608;2022-11-11T05:42:16;2.15;;;1.27;;
49378;SDS011;35254;47.990;-1.608;2022-11-11T05:44:42;2.67;;;1.50;;
49378;SDS011;35254;47.990;-1.608;2022-11-11T05:47:08;2.72;;;2.00;;
49378;SDS011;35254;47.990;-1.608;2022-11-11T05:49:34;3.13;;;1.23;;
49378;SDS011;35254;47.990;-1.608;2022-11-11T05:51:59;1.25;;;1.15;;
49378;SDS011;35254;47.990;-1.608;2022-11-11T05:54:25;5.40;;;1.85;;
49378;SDS011;35254;47.990;-1.608;2022-11-11T05:56:51;2.95;;;1.50;;
49378;SDS011;35254;47.990;-1.608;2022-11-11T05:59:17;3.50;;;1.45;;
49378;SDS011;35254;47.990;-1.608;2022-11-11T06:01:43;4.68;;;1.08;;
49378;SDS011;35254;47.990;-1.608;2022-11-11T06:04:08;5.47;;;1.67;;
49378;SDS011;35254;47.990;-1.608;2022-11-11T06:06:34;1.52;;;1.23;;
49378;SDS011;35254;47.990;-1.608;2022-11-11T06:09:01;4.78;;;1.05;;
49378;SDS011;35254;47.990;-1.608;2022-11-11T06:11:27;5.03;;;1.65;;
49378;SDS011;35254;47.990;-1.608;2022-11-11T06:13:53;1.98;;;1.33;;
49378;SDS011;35254;47.990;-1.608;2022-11-11T06:16:19;4.75;;;1.60;;
49378;SDS011;35254;47.990;-1.608;2022-11-11T06:18:45;1.83;;;1.40;;
49378;SDS011;35254;47.990;-1.608;2022-11-11T06:21:11;4.63;;;1.33;;
49378;SDS011;35254;47.990;-1.608;2022-11-11T06:23:37;5.22;;;1.35;;
49378;SDS011;35254;47.990;-1.608;2022-11-11T06:26:02;2.63;;;1.50;;
49378;SDS011;35254;47.990;-1.608;2022-11-11T06:28:41;3.45;;;1.58;;
49378;SDS011;35254;47.990;-1.608;2022-11-11T06:31:18;3.72;;;1.13;;
49378;SDS011;35254;47.990;-1.608;2022-11-11T06:33:46;9.18;;;1.50;;
49378;SDS011;35254;47.990;-1.608;2022-11-11T06:36:12;6.85;;;1.80;;
49378;SDS011;35254;47.990;-1.608;2022-11-11T06:38:40;5.53;;;1.55;;
49378;SDS011;35254;47.990;-1.608;2022-11-11T06:41:06;10.90;;;1.90;;
49378;SDS011;35254;47.990;-1.608;2022-11-11T06:43:33;1.50;;;1.02;;
49378;SDS011;35254;47.990;-1.608;2022-11-11T06:45:59;2.60;;;1.77;;
49378;SDS011;35254;47.990;-1.608;2022-11-11T06:48:26;5.85;;;1.10;;
49378;SDS011;35254;47.990;-1.608;2022-11-11T06:50:52;6.22;;;1.40;;
49378;SDS011;35254;47.990;-1.608;2022-11-11T06:53:19;5.90;;;1.40;;
49378;SDS011;35254;47.990;-1.608;2022-11-11T06:55:46;3.78;;;1.60;;
49378;SDS011;35254;47.990;-1.608;2022-11-11T06:58:13;1.60;;;1.50;;
49378;SDS011;35254;47.990;-1.608;2022-11-11T07:03:10;3.70;;;1.48;;
49378;SDS011;35254;47.990;-1.608;2022-11-11T07:05:37;5.40;;;2.45;;
49378;SDS011;35254;47.990;-1.608;2022-11-11T07:08:03;3.92;;;1.42;;
49378;SDS011;35254;47.990;-1.608;2022-11-11T07:10:31;7.15;;;2.38;;
49378;SDS011;35254;47.990;-1.608;2022-11-11T07:12:58;2.17;;;1.55;;
49378;SDS011;35254;47.990;-1.608;2022-11-11T07:15:24;4.47;;;2.08;;
49378;SDS011;35254;47.990;-1.608;2022-11-11T07:17:49;6.97;;;1.77;;
49378;SDS011;35254;47.990;-1.608;2022-11-11T07:20:15;6.35;;;1.55;;
49378;SDS011;35254;47.990;-1.608;2022-11-11T07:22:41;7.22;;;1.88;;
49378;SDS011;35254;47.990;-1.608;2022-11-11T07:25:06;3.92;;;1.33;;
49378;SDS011;35254;47.990;-1.608;2022-11-11T07:27:35;3.60;;;1.80;;
49378;SDS011;35254;47.990;-1.608;2022-11-11T07:30:02;6.50;;;1.80;;
49378;SDS011;35254;47.990;-1.608;2022-11-11T07:32:29;10.77;;;2.42;;
49378;SDS011;35254;47.990;-1.608;2022-11-11T07:34:55;6.43;;;2.10;;
49378;SDS011;35254;47.990;-1.608;2022-11-11T07:37:20;2.58;;;1.98;;
49378;SDS011;35254;47.990;-1.608;2022-11-11T07:39:46;10.85;;;2.15;;
49378;SDS011;35254;47.990;-1.608;2022-11-11T07:42:11;1.98;;;1.77;;
49378;SDS011;35254;47.990;-1.608;2022-11-11T07:44:37;5.57;;;2.25;;
49378;SDS011;35254;47.990;-1.608;2022-11-11T07:47:03;8.82;;;1.90;;
49378;SDS011;35254;47.990;-1.608;2022-11-11T07:49:28;2.00;;;1.70;;
49378;SDS011;35254;47.990;-1.608;2022-11-11T07:51:54;3.78;;;1.58;;
49378;SDS011;35254;47.990;-1.608;2022-11-11T07:54:20;1.77;;;1.67;;
49378;SDS011;35254;47.990;-1.608;2022-11-11T07:56:45;1.75;;;1.65;;
49378;SDS011;35254;47.990;-1.608;2022-11-11T07:59:11;2.42;;;1.80;;
49378;SDS011;35254;47.990;-1.608;2022-11-11T08:01:36;1.85;;;1.58;;
49378;SDS011;35254;47.990;-1.608;2022-11-11T08:04:02;2.25;;;1.90;;
49378;SDS011;35254;47.990;-1.608;2022-11-11T08:06:28;4.18;;;2.20;;
49378;SDS011;35254;47.990;-1.608;2022-11-11T08:08:54;5.60;;;2.40;;
49378;SDS011;35254;47.990;-1.608;2022-11-11T08:11:19;3.33;;;2.15;;
49378;SDS011;35254;47.990;-1.608;2022-11-11T08:14:05;10.85;;;2.47;;
49378;SDS011;35254;47.990;-1.608;2022-11-11T08:16:31;3.53;;;2.75;;
49378;SDS011;35254;47.990;-1.608;2022-11-11T08:18:56;5.38;;;2.10;;
49378;SDS011;35254;47.990;-1.608;2022-11-11T08:21:22;4.70;;;2.00;;
49378;SDS011;35254;47.990;-1.608;2022-11-11T08:23:48;7.00;;;2.55;;
49378;SDS011;35254;47.990;-1.608;2022-11-11T08:26:15;3.03;;;1.95;;
49378;SDS011;35254;47.990;-1.608;2022-11-11T08:28:42;7.82;;;2.53;;
49378;SDS011;35254;47.990;-1.608;2022-11-11T08:31:08;6.57;;;1.92;;
49378;SDS011;35254;47.990;-1.608;2022-11-11T08:33:34;3.95;;;1.77;;
49378;SDS011;35254;47.990;-1.608;2022-11-11T08:36:01;3.55;;;1.70;;
49378;SDS011;35254;47.990;-1.608;2022-11-11T08:38:27;3.40;;;1.85;;
49378;SDS011;35254;47.990;-1.608;2022-11-11T08:40:52;6.90;;;1.65;;
49378;SDS011;35254;47.990;-1.608;2022-11-11T08:43:18;4.20;;;1.83;;
49378;SDS011;35254;47.990;-1.608;2022-11-11T08:45:46;6.38;;;1.85;;
49378;SDS011;35254;47.990;-1.608;2022-11-11T08:48:12;2.80;;;1.48;;
49378;SDS011;35254;47.990;-1.608;2022-11-11T08:50:38;4.45;;;1.85;;
49378;SDS011;35254;47.990;-1.608;2022-11-11T08:53:07;2.85;;;1.58;;
49378;SDS011;35254;47.990;-1.608;2022-11-11T08:55:33;8.82;;;2.05;;
49378;SDS011;35254;47.990;-1.608;2022-11-11T08:58:01;16.70;;;2.53;;
49378;SDS011;35254;47.990;-1.608;2022-11-11T09:00:28;8.27;;;1.92;;
49378;SDS011;35254;47.990;-1.608;2022-11-11T09:02:54;5.78;;;1.67;;
49378;SDS011;35254;47.990;-1.608;2022-11-11T09:05:24;5.55;;;1.60;;
49378;SDS011;35254;47.990;-1.608;2022-11-11T09:07:49;1.63;;;1.52;;
49378;SDS011;35254;47.990;-1.608;2022-11-11T09:10:15;6.50;;;1.65;;
49378;SDS011;35254;47.990;-1.608;2022-11-11T09:12:41;1.75;;;1.27;;
49378;SDS011;35254;47.990;-1.608;2022-11-11T09:15:06;4.20;;;1.90;;
49378;SDS011;35254;47.990;-1.608;2022-11-11T09:17:32;1.73;;;1.63;;
49378;SDS011;35254;47.990;-1.608;2022-11-11T09:19:58;7.78;;;1.70;;
49378;SDS011;35254;47.990;-1.608;2022-11-11T09:22:23;5.05;;;1.83;;
49378;SDS011;35254;47.990;-1.608;2022-11-11T09:24:49;7.60;;;1.70;;
49378;SDS011;35254;47.990;-1.608;2022-11-11T09:27:15;4.63;;;1.65;;
49378;SDS011;35254;47.990;-1.608;2022-11-11T09:29:41;4.22;;;1.80;;
49378;SDS011;35254;47.990;-1.608;2022-11-11T09:32:06;6.20;;;1.58;;
49378;SDS011;35254;47.990;-1.608;2022-11-11T09:34:32;6.90;;;2.47;;
49378;SDS011;35254;47.990;-1.608;2022-11-11T09:36:58;8.07;;;1.90;;
49378;SDS011;35254;47.990;-1.608;2022-11-11T09:39:23;5.72;;;2.13;;
49378;SDS011;35254;47.990;-1.608;2022-11-11T09:50:00;4.22;;;1.90;;
49378;SDS011;35254;47.990;-1.608;2022-11-11T09:57:50;5.88;;;2.15;;
49378;SDS011;35254;47.990;-1.608;2022-11-11T10:00:28;4.55;;;1.90;;
49378;SDS011;35254;47.990;-1.608;2022-11-11T10:02:58;2.35;;;2.15;;
49378;SDS011;35254;47.990;-1.608;2022-11-11T10:05:37;3.38;;;2.42;;
49378;SDS011;35254;47.990;-1.608;2022-11-11T10:08:05;7.10;;;2.20;;
49378;SDS011;35254;47.990;-1.608;2022-11-11T10:10:43;9.48;;;2.53;;
49378;SDS011;35254;47.990;-1.608;2022-11-11T10:13:16;9.88;;;2.05;;
49378;SDS011;35254;47.990;-1.608;2022-11-11T10:18:36;3.92;;;2.00;;
49378;SDS011;35254;47.990;-1.608;2022-11-11T10:21:14;5.70;;;1.95;;
49378;SDS011;35254;47.990;-1.608;2022-11-11T10:23:45;10.38;;;2.47;;
49378;SDS011;35254;47.990;-1.608;2022-11-11T10:26:36;2.28;;;1.90;;
49378;SDS011;35254;47.990;-1.608;2022-11-11T10:29:03;3.80;;;2.38;;
49378;SDS011;35254;47.990;-1.608;2022-11-11T10:31:43;3.90;;;2.58;;
49378;SDS011;35254;47.990;-1.608;2022-11-11T10:34:13;2.10;;;1.90;;
49378;SDS011;35254;47.990;-1.608;2022-11-11T10:36:43;7.53;;;2.30;;
49378;SDS011;35254;47.990;-1.608;2022-11-11T10:41:46;11.23;;;2.78;;
49378;SDS011;35254;47.990;-1.608;2022-11-11T10:44:18;4.45;;;2.28;;
49378;SDS011;35254;47.990;-1.608;2022-11-11T10:49:32;3.40;;;2.53;;
49378;SDS011;35254;47.990;-1.608;2022-11-11T10:52:05;6.88;;;2.70;;
49378;SDS011;35254;47.990;-1.608;2022-11-11T10:55:07;8.60;;;2.80;;
49378;SDS011;35254;47.990;-1.608;2022-11-11T10:57:38;5.10;;;2.95;;
49378;SDS011;35254;47.990;-1.608;2022-11-11T11:00:19;5.57;;;2.60;;
49378;SDS011;35254;47.990;-1.608;2022-11-11T11:07:50;4.13;;;2.47;;
49378;SDS011;35254;47.990;-1.608;2022-11-11T11:10:22;7.55;;;2.20;;
49378;SDS011;35254;47.990;-1.608;2022-11-11T11:12:58;9.45;;;2.47;;
49378;SDS011;35254;47.990;-1.608;2022-11-11T11:15:30;9.05;;;2.53;;
49378;SDS011;35254;47.990;-1.608;2022-11-11T11:20:29;3.42;;;2.72;;
49378;SDS011;35254;47.990;-1.608;2022-11-11T11:22:56;8.65;;;2.72;;
49378;SDS011;35254;47.990;-1.608;2022-11-11T11:25:24;5.20;;;3.05;;
49378;SDS011;35254;47.990;-1.608;2022-11-11T11:27:53;8.07;;;3.53;;
49378;SDS011;35254;47.990;-1.608;2022-11-11T11:30:33;5.63;;;2.80;;
49378;SDS011;35254;47.990;-1.608;2022-11-11T11:33:03;4.00;;;2.55;;
49378;SDS011;35254;47.990;-1.608;2022-11-11T11:38:04;5.47;;;3.08;;
49378;SDS011;35254;47.990;-1.608;2022-11-11T11:40:50;5.93;;;2.90;;
49378;SDS011;35254;47.990;-1.608;2022-11-11T11:46:03;13.85;;;3.25;;
49378;SDS011;35254;47.990;-1.608;2022-11-11T11:51:27;5.75;;;3.33;;
49378;SDS011;35254;47.990;-1.608;2022-11-11T11:54:18;6.30;;;2.63;;
49378;SDS011;35254;47.990;-1.608;2022-11-11T11:57:19;4.72;;;2.83;;
49378;SDS011;35254;47.990;-1.608;2022-11-11T12:00:13;6.88;;;3.05;;
49378;SDS011;35254;47.990;-1.608;2022-11-11T12:03:06;4.35;;;2.47;;
49378;SDS011;35254;47.990;-1.608;2022-11-11T12:06:12;5.40;;;2.40;;
49378;SDS011;35254;47.990;-1.608;2022-11-11T12:11:38;4.85;;;3.45;;
49378;SDS011;35254;47.990;-1.608;2022-11-11T12:14:22;4.70;;;2.58;;
49378;SDS011;35254;47.990;-1.608;2022-11-11T12:17:01;12.63;;;3.00;;
49378;SDS011;35254;47.990;-1.608;2022-11-11T12:30:50;10.80;;;3.53;;
49378;SDS011;35254;47.990;-1.608;2022-11-11T12:36:34;5.28;;;3.55;;
49378;SDS011;35254;47.990;-1.608;2022-11-11T12:39:39;4.97;;;3.07;;
49378;SDS011;35254;47.990;-1.608;2022-11-11T12:45:19;5.88;;;4.20;;
49378;SDS011;35254;47.990;-1.608;2022-11-11T12:50:28;10.75;;;4.25;;
49378;SDS011;35254;47.990;-1.608;2022-11-11T12:58:29;8.52;;;3.95;;
49378;SDS011;35254;47.990;-1.608;2022-11-11T13:16:41;8.15;;;3.70;;
49378;SDS011;35254;47.990;-1.608;2022-11-11T13:19:18;10.48;;;4.63;;
49378;SDS011;35254;47.990;-1.608;2022-11-11T13:24:50;7.00;;;4.50;;
49378;SDS011;35254;47.990;-1.608;2022-11-11T13:30:05;11.30;;;4.78;;
49378;SDS011;35254;47.990;-1.608;2022-11-11T13:32:45;9.02;;;5.00;;
49378;SDS011;35254;47.990;-1.608;2022-11-11T13:35:19;7.55;;;4.40;;
49378;SDS011;35254;47.990;-1.608;2022-11-11T13:37:52;15.63;;;5.40;;
49378;SDS011;35254;47.990;-1.608;2022-11-11T13:40:38;6.30;;;4.40;;
49378;SDS011;35254;47.990;-1.608;2022-11-11T13:43:14;8.75;;;4.35;;
49378;SDS011;35254;47.990;-1.608;2022-11-11T13:46:04;6.32;;;3.60;;
49378;SDS011;35254;47.990;-1.608;2022-11-11T13:48:34;6.57;;;4.47;;
49378;SDS011;35254;47.990;-1.608;2022-11-11T13:51:25;10.75;;;4.20;;
49378;SDS011;35254;47.990;-1.608;2022-11-11T13:53:51;10.48;;;4.93;;
49378;SDS011;35254;47.990;-1.608;2022-11-11T13:56:21;10.93;;;4.53;;
49378;SDS011;35254;47.990;-1.608;2022-11-11T13:58:50;11.07;;;4.70;;
49378;SDS011;35254;47.990;-1.608;2022-11-11T14:01:17;6.70;;;4.13;;
49378;SDS011;35254;47.990;-1.608;2022-11-11T14:13:56;5.95;;;4.05;;
49378;SDS011;35254;47.990;-1.608;2022-11-11T14:18:58;13.68;;;3.90;;
49378;SDS011;35254;47.990;-1.608;2022-11-11T14:21:43;9.50;;;5.43;;
49378;SDS011;35254;47.990;-1.608;2022-11-11T14:24:22;14.63;;;4.65;;
49378;SDS011;35254;47.990;-1.608;2022-11-11T14:29:36;6.72;;;4.88;;
49378;SDS011;35254;47.990;-1.608;2022-11-11T14:35:38;8.48;;;5.72;;
49378;SDS011;35254;47.990;-1.608;2022-11-11T14:37:54;5.55;;;4.18;;
49378;SDS011;35254;47.990;-1.608;2022-11-11T14:40:25;7.00;;;4.50;;
49378;SDS011;35254;47.990;-1.608;2022-11-11T14:42:58;10.63;;;4.30;;
49378;SDS011;35254;47.990;-1.608;2022-11-11T14:54:05;5.82;;;4.45;;
49378;SDS011;35254;47.990;-1.608;2022-11-11T14:56:42;6.55;;;4.45;;
49378;SDS011;35254;47.990;-1.608;2022-11-11T14:59:10;7.10;;;5.30;;
49378;SDS011;35254;47.990;-1.608;2022-11-11T15:01:38;5.85;;;5.13;;
49378;SDS011;35254;47.990;-1.608;2022-11-11T15:04:04;14.57;;;5.10;;
49378;SDS011;35254;47.990;-1.608;2022-11-11T15:06:44;7.32;;;4.55;;
49378;SDS011;35254;47.990;-1.608;2022-11-11T15:17:27;8.65;;;4.32;;
49378;SDS011;35254;47.990;-1.608;2022-11-11T15:27:42;8.88;;;4.45;;
49378;SDS011;35254;47.990;-1.608;2022-11-11T15:35:40;8.07;;;4.63;;
49378;SDS011;35254;47.990;-1.608;2022-11-11T15:38:11;7.80;;;4.63;;
49378;SDS011;35254;47.990;-1.608;2022-11-11T15:40:46;4.95;;;4.45;;
49378;SDS011;35254;47.990;-1.608;2022-11-11T15:43:15;5.55;;;4.90;;
49378;SDS011;35254;47.990;-1.608;2022-11-11T15:45:44;7.25;;;5.22;;
49378;SDS011;35254;47.990;-1.608;2022-11-11T15:48:15;7.32;;;5.15;;
49378;SDS011;35254;47.990;-1.608;2022-11-11T15:50:47;7.82;;;5.18;;
49378;SDS011;35254;47.990;-1.608;2022-11-11T15:53:13;11.77;;;5.82;;
49378;SDS011;35254;47.990;-1.608;2022-11-11T15:55:50;5.60;;;4.75;;
49378;SDS011;35254;47.990;-1.608;2022-11-11T15:58:24;10.68;;;5.03;;
49378;SDS011;35254;47.990;-1.608;2022-11-11T16:00:51;7.85;;;5.05;;
49378;SDS011;35254;47.990;-1.608;2022-11-11T16:05:52;5.68;;;4.85;;
49378;SDS011;35254;47.990;-1.608;2022-11-11T16:08:19;7.38;;;4.70;;
49378;SDS011;35254;47.990;-1.608;2022-11-11T16:10:45;8.85;;;4.68;;
49378;SDS011;35254;47.990;-1.608;2022-11-11T16:18:29;10.85;;;5.13;;
49378;SDS011;35254;47.990;-1.608;2022-11-11T16:21:08;8.43;;;5.25;;
49378;SDS011;35254;47.990;-1.608;2022-11-11T16:23:38;11.20;;;5.15;;
49378;SDS011;35254;47.990;-1.608;2022-11-11T16:26:05;7.43;;;5.57;;
49378;SDS011;35254;47.990;-1.608;2022-11-11T16:31:40;12.10;;;5.35;;
49378;SDS011;35254;47.990;-1.608;2022-11-11T16:33:58;9.20;;;5.80;;
49378;SDS011;35254;47.990;-1.608;2022-11-11T16:36:23;8.30;;;5.28;;
49378;SDS011;35254;47.990;-1.608;2022-11-11T16:38:49;6.75;;;5.38;;
49378;SDS011;35254;47.990;-1.608;2022-11-11T16:41:22;11.40;;;6.20;;
49378;SDS011;35254;47.990;-1.608;2022-11-11T16:43:48;5.93;;;5.32;;
49378;SDS011;35254;47.990;-1.608;2022-11-11T16:46:14;6.57;;;5.35;;
49378;SDS011;35254;47.990;-1.608;2022-11-11T16:49:11;9.88;;;4.88;;
49378;SDS011;35254;47.990;-1.608;2022-11-11T16:51:53;6.25;;;5.65;;
49378;SDS011;35254;47.990;-1.608;2022-11-11T16:54:29;12.13;;;5.68;;
49378;SDS011;35254;47.990;-1.608;2022-11-11T16:56:58;10.75;;;5.45;;
49378;SDS011;35254;47.990;-1.608;2022-11-11T17:01:58;9.23;;;5.30;;
49378;SDS011;35254;47.990;-1.608;2022-11-11T17:04:24;6.53;;;5.03;;
49378;SDS011;35254;47.990;-1.608;2022-11-11T17:06:51;11.77;;;5.85;;
49378;SDS011;35254;47.990;-1.608;2022-11-11T17:12:00;6.65;;;5.63;;
49378;SDS011;35254;47.990;-1.608;2022-11-11T17:14:26;6.43;;;5.70;;
49378;SDS011;35254;47.990;-1.608;2022-11-11T17:16:53;5.78;;;5.03;;
49378;SDS011;35254;47.990;-1.608;2022-11-11T17:19:19;9.23;;;5.65;;
49378;SDS011;35254;47.990;-1.608;2022-11-11T17:21:48;6.20;;;5.25;;
49378;SDS011;35254;47.990;-1.608;2022-11-11T17:24:13;6.82;;;5.47;;
49378;SDS011;35254;47.990;-1.608;2022-11-11T17:26:39;7.68;;;6.38;;
49378;SDS011;35254;47.990;-1.608;2022-11-11T17:29:05;11.45;;;5.50;;
49378;SDS011;35254;47.990;-1.608;2022-11-11T17:31:34;6.22;;;5.60;;
49378;SDS011;35254;47.990;-1.608;2022-11-11T17:34:04;8.20;;;6.53;;
49378;SDS011;35254;47.990;-1.608;2022-11-11T17:36:33;8.15;;;5.50;;
49378;SDS011;35254;47.990;-1.608;2022-11-11T17:38:59;7.22;;;5.75;;
49378;SDS011;35254;47.990;-1.608;2022-11-11T17:41:25;8.30;;;5.50;;
49378;SDS011;35254;47.990;-1.608;2022-11-11T17:43:50;5.95;;;4.35;;